Ischia Jet — IOBI — position and weather

sailwx.info

Track history (hours):
 
Tides and Currents Weather Stations Pressure Air Temp Water Temp Dewpoint Dewpoint Depression Visibility Wind Speed Wind Dir Waves Ship Positions

Ischia Jet

Last reported at 2017-Dec-29 15:54 UTC. Time now 2018-Feb-20 05:42 UTC.
Position N 40°48' E 014°16'.
Warning: this ship's position is 52 days out of date.

Length 42 m; draft 1.2 m.

Type: Passenger vessel. MMSI: 247048700.

Date/timePositionNaut miles runAvg speedWind from/ knotsBaromVisibWave heightAir tempDewpointWater temp
2017-Dec-29 15:54N 40°48' E 014°16'820.8
2017-Dec-29 15:30N 40°39' E 014°14'4 1.5
2017-Dec-29 12:37N 40°36' E 014°18'221.7
2017-Dec-29 12:30N 40°38' E 014°19'3 5.5
2017-Dec-29 12:00N 40°38' E 014°23'0 0.0
2017-Dec-29 11:30N 40°38' E 014°23'0 0.0
2017-Dec-29 11:00N 40°38' E 014°23'0 0.0
2017-Dec-29 10:30N 40°38' E 014°23'0 0.0
2017-Dec-29 10:00N 40°38' E 014°23'0 0.0
2017-Dec-29 09:30N 40°38' E 014°23'0 0.0
2017-Dec-29 09:00N 40°38' E 014°23'0 0.0
2017-Dec-29 08:30N 40°38' E 014°23'0 0.0
2017-Dec-29 08:00N 40°38' E 014°23'0 0.0
2017-Dec-29 07:30N 40°38' E 014°23'0 0.0
2017-Dec-29 07:00N 40°38' E 014°23'0 0.0
2017-Dec-29 06:30N 40°38' E 014°23'0 0.0
2017-Dec-28 17:25N 40°38' E 014°23'0 0.0
2017-Dec-28 17:00N 40°38' E 014°23'0 0.0
2017-Dec-28 16:30N 40°38' E 014°23'0 0.0
2017-Dec-28 16:00N 40°38' E 014°23'0 0.0
2017-Dec-28 15:30N 40°38' E 014°23'0 0.0
2017-Dec-28 15:00N 40°38' E 014°23'0 0.0
2017-Dec-28 14:30N 40°38' E 014°23'0 0.0
2017-Dec-28 14:00N 40°38' E 014°23'0 0.0
2017-Dec-28 13:30N 40°38' E 014°23'0 0.0
2017-Dec-28 13:00N 40°38' E 014°23'0 0.0
2017-Dec-28 12:30N 40°38' E 014°23'0 0.0
2017-Dec-28 12:00N 40°38' E 014°23'0 0.0
2017-Dec-28 11:30N 40°38' E 014°23'0 0.0
2017-Dec-28 11:00N 40°38' E 014°23'0 0.0
2017-Dec-28 10:30N 40°38' E 014°23'0 0.0
2017-Dec-28 10:00N 40°38' E 014°23'0 0.0
2017-Dec-28 09:30N 40°38' E 014°23'0 0.0
2017-Dec-28 09:00N 40°38' E 014°23'0 0.0
2017-Dec-28 08:30N 40°38' E 014°23'0 0.0
2017-Dec-28 08:00N 40°38' E 014°23'0 0.0
2017-Dec-28 07:30N 40°38' E 014°23'0 0.0
2017-Dec-28 07:00N 40°38' E 014°23'0 0.0
2017-Dec-27 13:20N 40°38' E 014°23'0 0.0
2017-Dec-27 13:00N 40°38' E 014°23'0 0.0
2017-Dec-27 12:30N 40°38' E 014°23'0 0.0
2017-Dec-27 12:00N 40°38' E 014°23'0 0.0
2017-Dec-27 11:30N 40°38' E 014°23'0 0.0
2017-Dec-27 11:00N 40°38' E 014°23'0 0.0
2017-Dec-27 10:30N 40°38' E 014°23'0 0.0
2017-Dec-27 10:00N 40°38' E 014°23'0 0.0
2017-Dec-27 09:30N 40°38' E 014°23'0 0.0
2017-Dec-27 09:00N 40°38' E 014°23'9 4.1
2017-Dec-27 06:47N 40°46' E 014°18'723.6
2017-Dec-27 06:30N 40°40' E 014°21'  
2017-Dec-22 18:14N 40°38' E 014°23'419.8
2017-Dec-22 18:01N 40°42' E 014°21'4 0.2
2017-Dec-21 18:09N 40°38' E 014°23'213.1
2017-Dec-21 18:01N 40°40' E 014°22'7 0.6
2017-Dec-21 06:44N 40°47' E 014°19'9 0.7
2017-Dec-20 18:10N 40°38' E 014°23'214.8
2017-Dec-20 18:00N 40°40' E 014°22'8 0.7
2017-Dec-20 06:46N 40°48' E 014°18'725.2
2017-Dec-20 06:30N 40°42' E 014°22'4 0.3
2017-Dec-19 18:08N 40°38' E 014°23'212.6
2017-Dec-19 18:01N 40°39' E 014°22'  
Track history (hours):
 
Tides and Currents Weather Stations Pressure Air Temp Water Temp Dewpoint Dewpoint Depression Visibility Wind Speed Wind Dir Waves Ship Positions

Ischia Jet

Last reported at 2017-Dec-29 15:54 UTC. Time now 2018-Feb-20 05:42 UTC.
Position N 40°48' E 014°16'.
Warning: this ship's position is 52 days out of date.

Length 42 m; draft 1.2 m.

Type: Passenger vessel. MMSI: 247048700.

Date/timePositionNaut miles runAvg speedWind from/ knotsBaromVisibWave heightAir tempDewpointWater temp
2017-Dec-29 15:54N 40°48' E 014°16'820.8
2017-Dec-29 15:30N 40°39' E 014°14'4 1.5
2017-Dec-29 12:37N 40°36' E 014°18'221.7
2017-Dec-29 12:30N 40°38' E 014°19'3 5.5
2017-Dec-29 12:00N 40°38' E 014°23'0 0.0
2017-Dec-29 11:30N 40°38' E 014°23'0 0.0
2017-Dec-29 11:00N 40°38' E 014°23'0 0.0
2017-Dec-29 10:30N 40°38' E 014°23'0 0.0
2017-Dec-29 10:00N 40°38' E 014°23'0 0.0
2017-Dec-29 09:30N 40°38' E 014°23'0 0.0
2017-Dec-29 09:00N 40°38' E 014°23'0 0.0
2017-Dec-29 08:30N 40°38' E 014°23'0 0.0
2017-Dec-29 08:00N 40°38' E 014°23'0 0.0
2017-Dec-29 07:30N 40°38' E 014°23'0 0.0
2017-Dec-29 07:00N 40°38' E 014°23'0 0.0
2017-Dec-29 06:30N 40°38' E 014°23'0 0.0
2017-Dec-28 17:25N 40°38' E 014°23'0 0.0
2017-Dec-28 17:00N 40°38' E 014°23'0 0.0
2017-Dec-28 16:30N 40°38' E 014°23'0 0.0
2017-Dec-28 16:00N 40°38' E 014°23'0 0.0
2017-Dec-28 15:30N 40°38' E 014°23'0 0.0
2017-Dec-28 15:00N 40°38' E 014°23'0 0.0
2017-Dec-28 14:30N 40°38' E 014°23'0 0.0
2017-Dec-28 14:00N 40°38' E 014°23'0 0.0
2017-Dec-28 13:30N 40°38' E 014°23'0 0.0
2017-Dec-28 13:00N 40°38' E 014°23'0 0.0
2017-Dec-28 12:30N 40°38' E 014°23'0 0.0
2017-Dec-28 12:00N 40°38' E 014°23'0 0.0
2017-Dec-28 11:30N 40°38' E 014°23'0 0.0
2017-Dec-28 11:00N 40°38' E 014°23'0 0.0
2017-Dec-28 10:30N 40°38' E 014°23'0 0.0
2017-Dec-28 10:00N 40°38' E 014°23'0 0.0
2017-Dec-28 09:30N 40°38' E 014°23'0 0.0
2017-Dec-28 09:00N 40°38' E 014°23'0 0.0
2017-Dec-28 08:30N 40°38' E 014°23'0 0.0
2017-Dec-28 08:00N 40°38' E 014°23'0 0.0
2017-Dec-28 07:30N 40°38' E 014°23'0 0.0
2017-Dec-28 07:00N 40°38' E 014°23'0 0.0
2017-Dec-27 13:20N 40°38' E 014°23'0 0.0
2017-Dec-27 13:00N 40°38' E 014°23'0 0.0
2017-Dec-27 12:30N 40°38' E 014°23'0 0.0
2017-Dec-27 12:00N 40°38' E 014°23'0 0.0
2017-Dec-27 11:30N 40°38' E 014°23'0 0.0
2017-Dec-27 11:00N 40°38' E 014°23'0 0.0
2017-Dec-27 10:30N 40°38' E 014°23'0 0.0
2017-Dec-27 10:00N 40°38' E 014°23'0 0.0
2017-Dec-27 09:30N 40°38' E 014°23'0 0.0
2017-Dec-27 09:00N 40°38' E 014°23'9 4.1
2017-Dec-27 06:47N 40°46' E 014°18'723.6
2017-Dec-27 06:30N 40°40' E 014°21'  
2017-Dec-22 18:14N 40°38' E 014°23'419.8
2017-Dec-22 18:01N 40°42' E 014°21'4 0.2
2017-Dec-21 18:09N 40°38' E 014°23'213.1
2017-Dec-21 18:01N 40°40' E 014°22'7 0.6
2017-Dec-21 06:44N 40°47' E 014°19'9 0.7
2017-Dec-20 18:10N 40°38' E 014°23'214.8
2017-Dec-20 18:00N 40°40' E 014°22'8 0.7
2017-Dec-20 06:46N 40°48' E 014°18'725.2
2017-Dec-20 06:30N 40°42' E 014°22'4 0.3
2017-Dec-19 18:08N 40°38' E 014°23'212.6
2017-Dec-19 18:01N 40°39' E 014°22'  

Dump ship's entire track history